Time;durP1;ratioP1;P1;durP2;ratioP2;P2;SDS_P1;SDS_P2;PMS_P1;PMS_P2;Temp;Humidity;BMP_temperature;BMP_pressure;BME280_temperature;BME280_humidity;BME280_pressure;Samples;Min_cycle;Max_cycle;Signal;HPM_P1;HPM_P2
2023/11/26 00:01:17;;;;;;;;;;;2.90;1.00;;;;;;5056190;28;19928;-73
2023/11/26 00:03:43;;;;;;;;;;;3.00;1.00;;;;;;5048346;28;19909;-72
2023/11/26 00:06:09;;;;;;;;;;;3.00;1.00;;;;;;5055234;28;19912;-73
2023/11/26 00:08:35;;;;;;;;;;;2.90;1.00;;;;;;5055745;28;19908;-73
2023/11/26 00:11:01;;;;;;;;;;;;;;;;;;5054000;28;19928;-73
2023/11/26 00:13:50;;;;;;;;;;;2.90;1.00;;;;;;5055721;28;19947;-79
2023/11/26 00:16:20;;;;;;;;;;;2.80;1.00;;;;;;5055177;28;20350;-79
2023/11/26 00:19:20;;;;;;;;;;;2.90;1.00;;;;;;5052576;28;19959;-78
2023/11/26 00:21:48;;;;;;;;;;;3.00;1.00;;;;;;5051245;28;19909;-78
2023/11/26 00:24:50;;;;;;;;;;;3.00;1.00;;;;;;5036237;28;20071;-79
2023/11/26 00:30:20;;;;;;;;;;;2.90;1.00;;;;;;5055715;28;19951;-74
2023/11/26 00:32:46;;;;;;;;;;;2.90;1.00;;;;;;5055751;28;19905;-72
2023/11/26 00:35:12;;;;;;;;;;;;;;;;;;5055678;28;20039;-73
2023/11/26 00:37:38;;;;;;;;;;;;;;;;;;5055550;28;19905;-73
2023/11/26 00:40:05;;;;;;;;;;;2.80;1.00;;;;;;5055480;28;19909;-72
2023/11/26 00:42:31;;;;;;;;;;;2.70;1.00;;;;;;5055130;28;19905;-73
2023/11/26 00:45:02;;;;;;;;;;;2.70;1.00;;;;;;5053405;28;20362;-73
2023/11/26 00:47:28;;;;;;;;;;;;;;;;;;5055302;28;20003;-73
2023/11/26 00:49:58;;;;;;;;;;;2.60;1.00;;;;;;5055422;28;19952;-72
2023/11/26 00:52:23;;;;;;;;;;;2.40;1.00;;;;;;5055253;28;19951;-73
2023/11/26 00:54:49;;;;;;;;;;;2.50;1.00;;;;;;5055426;28;19966;-73
2023/11/26 00:57:15;;;;;;;;;;;2.40;1.00;;;;;;5055461;28;19909;-73
2023/11/26 00:59:50;;;;;;;;;;;2.50;1.00;;;;;;5046255;28;20261;-79
2023/11/26 01:05:18;;;;;;;;;;;2.30;1.00;;;;;;5054232;28;19915;-79
2023/11/26 01:10:28;;;;;;;;;;;2.30;1.00;;;;;;5043298;28;19916;-79
2023/11/26 01:13:26;;;;;;;;;;;2.30;1.00;;;;;;5055278;28;19904;-79
2023/11/26 01:28:03;;;;;;;;;;;2.20;1.00;;;;;;5054327;28;20010;-79
2023/11/26 01:33:32;;;;;;;;;;;2.30;1.00;;;;;;5055042;28;19911;-79
2023/11/26 01:36:32;;;;;;;;;;;2.20;1.00;;;;;;5054927;28;19995;-79
2023/11/26 01:38:58;;;;;;;;;;;2.20;1.00;;;;;;5049883;28;19947;-79
2023/11/26 01:41:56;;;;;;;;;;;2.20;1.00;;;;;;5050804;28;20011;-79
2023/11/26 01:44:26;;;;;;;;;;;2.10;1.00;;;;;;5055236;28;20269;-72
2023/11/26 01:46:52;;;;;;;;;;;;;;;;;;5054427;28;19944;-73
2023/11/26 01:49:19;;;;;;;;;;;2.20;1.00;;;;;;5051451;28;19951;-73
2023/11/26 01:51:45;;;;;;;;;;;2.10;1.00;;;;;;5043736;28;19912;-73
2023/11/26 01:54:14;;;;;;;;;;;2.10;1.00;;;;;;5049593;28;19912;-73
2023/11/26 01:56:50;;;;;;;;;;;2.20;1.00;;;;;;5047258;28;19909;-72
2023/11/26 02:02:19;;;;;;;;;;;2.20;1.00;;;;;;5054270;28;20390;-79
2023/11/26 02:04:50;;;;;;;;;;;2.10;1.00;;;;;;5043894;28;19905;-79
2023/11/26 02:16:25;;;;;;;;;;;2.30;1.00;;;;;;5053999;28;19911;-73
2023/11/26 02:18:56;;;;;;;;;;;2.30;1.00;;;;;;5047936;28;19909;-73
2023/11/26 02:21:22;;;;;;;;;;;2.20;1.00;;;;;;5053444;28;20352;-73
2023/11/26 02:23:47;;;;;;;;;;;2.30;1.00;;;;;;5044425;28;19949;-73
2023/11/26 02:26:14;;;;;;;;;;;2.30;1.00;;;;;;5045377;28;20006;-73
2023/11/26 02:28:41;;;;;;;;;;;2.30;1.00;;;;;;5047998;28;19908;-73
2023/11/26 02:37:08;;;;;;;;;;;2.50;1.00;;;;;;5041606;28;19912;-79
2023/11/26 02:43:08;;;;;;;;;;;2.60;1.00;;;;;;5049028;28;20207;-79
2023/11/26 02:45:34;;;;;;;;;;;2.60;1.00;;;;;;5051845;28;19909;-73
2023/11/26 02:47:59;;;;;;;;;;;2.70;1.00;;;;;;5053007;28;19924;-73
2023/11/26 02:50:25;;;;;;;;;;;2.50;1.00;;;;;;5053466;28;19905;-73
2023/11/26 02:52:50;;;;;;;;;;;2.50;1.00;;;;;;5053206;28;20257;-73
2023/11/26 02:55:20;;;;;;;;;;;;;;;;;;5053041;28;20336;-73
2023/11/26 02:57:50;;;;;;;;;;;2.60;1.00;;;;;;5052941;28;19912;-73
2023/11/26 03:03:37;;;;;;;;;;;2.60;1.00;;;;;;5053617;28;19915;-79
2023/11/26 03:14:55;;;;;;;;;;;2.70;1.00;;;;;;5057566;28;19912;-72
2023/11/26 03:20:26;;;;;;;;;;;2.80;1.00;;;;;;5057480;28;19919;-79
2023/11/26 03:23:26;;;;;;;;;;;2.90;1.00;;;;;;5057278;28;19926;-79
2023/11/26 03:32:02;;;;;;;;;;;2.90;1.00;;;;;;5043889;28;19912;-73
2023/11/26 03:34:29;;;;;;;;;;;3.00;1.00;;;;;;5056348;28;19909;-73
2023/11/26 03:36:55;;;;;;;;;;;3.00;1.00;;;;;;5056482;28;19905;-73
2023/11/26 03:39:21;;;;;;;;;;;;;;;;;;5054597;28;19915;-73
2023/11/26 03:41:50;;;;;;;;;;;3.10;1.00;;;;;;5044994;28;19958;-73
2023/11/26 03:44:16;;;;;;;;;;;;;;;;;;5053054;28;20276;-73
2023/11/26 03:46:42;;;;;;;;;;;3.20;1.00;;;;;;5057140;28;19912;-79
2023/11/26 03:49:08;;;;;;;;;;;3.20;1.00;;;;;;5054950;28;19928;-79
2023/11/26 03:51:34;;;;;;;;;;;3.20;1.00;;;;;;5046136;28;19908;-79
2023/11/26 03:57:02;;;;;;;;;;;3.30;1.00;;;;;;5050920;28;19911;-79
2023/11/26 03:59:32;;;;;;;;;;;3.30;1.00;;;;;;5056700;28;19913;-79
2023/11/26 04:01:58;;;;;;;;;;;3.30;1.00;;;;;;5055612;28;19904;-73
2023/11/26 04:04:23;;;;;;;;;;;3.20;1.00;;;;;;5044129;28;19909;-73
2023/11/26 04:06:49;;;;;;;;;;;3.30;1.00;;;;;;5046654;28;19905;-73
2023/11/26 04:09:20;;;;;;;;;;;3.30;1.00;;;;;;5052189;28;20330;-73
2023/11/26 04:11:56;;;;;;;;;;;3.20;1.00;;;;;;5053431;28;19924;-73
2023/11/26 04:14:29;;;;;;;;;;;3.00;1.00;;;;;;5055833;28;19909;-73
2023/11/26 04:17:15;;;;;;;;;;;3.00;1.00;;;;;;5055899;28;19905;-79
2023/11/26 04:22:44;;;;;;;;;;;;;;;;;;5047687;28;19912;-81
2023/11/26 04:28:38;;;;;;;;;;;3.10;1.00;;;;;;5056221;28;20366;-80
2023/11/26 04:37:14;;;;;;;;;;;3.10;1.00;;;;;;5055663;28;19915;-79
2023/11/26 04:45:46;;;;;;;;;;;2.90;1.00;;;;;;5056043;28;19911;-78
2023/11/26 04:48:11;;;;;;;;;;;3.00;1.00;;;;;;5056034;28;19916;-79
2023/11/26 04:50:37;;;;;;;;;;;2.90;1.00;;;;;;5055976;28;19962;-79
2023/11/26 04:55:48;;;;;;;;;;;3.10;1.00;;;;;;5055726;28;19911;-79
2023/11/26 05:01:16;;;;;;;;;;;3.10;1.00;;;;;;5045112;28;20375;-79
2023/11/26 05:06:27;;;;;;;;;;;3.20;1.00;;;;;;5055451;28;19927;-79
2023/11/26 05:17:50;;;;;;;;;;;3.10;1.00;;;;;;5046170;28;19912;-73
2023/11/26 05:20:16;;;;;;;;;;;3.10;1.00;;;;;;5052980;28;19908;-73
2023/11/26 05:22:42;;;;;;;;;;;3.20;1.00;;;;;;5047850;28;19955;-73
2023/11/26 05:25:07;;;;;;;;;;;3.10;1.00;;;;;;5054528;28;19905;-73
2023/11/26 05:27:33;;;;;;;;;;;3.10;1.00;;;;;;5054283;28;19912;-73
2023/11/26 05:30:01;;;;;;;;;;;3.10;1.00;;;;;;5053661;28;19947;-73
2023/11/26 05:32:28;;;;;;;;;;;3.10;1.00;;;;;;5053821;28;19916;-79
2023/11/26 05:34:56;;;;;;;;;;;3.20;1.00;;;;;;5054671;28;20378;-80
2023/11/26 05:40:56;;;;;;;;;;;3.30;1.00;;;;;;5053779;28;19935;-79
2023/11/26 05:43:56;;;;;;;;;;;3.30;1.00;;;;;;5053743;28;19908;-79
2023/11/26 05:49:26;;;;;;;;;;;3.50;1.00;;;;;;5054482;28;19923;-79
2023/11/26 06:03:51;;;;;;;;;;;3.60;1.00;;;;;;5050800;28;19958;-73
2023/11/26 06:06:17;;;;;;;;;;;3.50;1.00;;;;;;5035378;28;19959;-73
2023/11/26 06:08:56;;;;;;;;;;;3.50;1.00;;;;;;5051690;28;19912;-73
2023/11/26 06:11:22;;;;;;;;;;;3.60;1.00;;;;;;5052241;28;19905;-74
2023/11/26 06:13:48;;;;;;;;;;;3.70;1.00;;;;;;5053984;28;20378;-73
2023/11/26 06:16:13;;;;;;;;;;;3.70;1.00;;;;;;5053638;28;19905;-73
2023/11/26 06:18:39;;;;;;;;;;;3.70;1.00;;;;;;5056033;28;19912;-73
2023/11/26 06:21:05;;;;;;;;;;;3.70;1.00;;;;;;5053595;28;19987;-73
2023/11/26 06:23:30;;;;;;;;;;;3.60;1.00;;;;;;5054637;28;20000;-73
2023/11/26 06:25:56;;;;;;;;;;;3.50;1.00;;;;;;5053761;28;19904;-73
2023/11/26 06:28:22;;;;;;;;;;;3.40;1.00;;;;;;5041038;28;19905;-73
2023/11/26 06:30:48;;;;;;;;;;;3.30;1.00;;;;;;5052709;28;19905;-73
2023/11/26 06:39:01;;;;;;;;;;;3.00;1.00;;;;;;5045689;28;19915;-79
2023/11/26 06:41:34;;;;;;;;;;;3.10;1.00;;;;;;5053298;28;19987;-79
2023/11/26 06:47:02;;;;;;;;;;;3.10;1.00;;;;;;5045335;28;19951;-73
2023/11/26 06:49:28;;;;;;;;;;;3.10;1.00;;;;;;5053200;28;20370;-73
2023/11/26 06:51:55;;;;;;;;;;;3.10;1.00;;;;;;5046477;28;20212;-73
2023/11/26 06:54:21;;;;;;;;;;;3.10;1.00;;;;;;5053325;28;19913;-73
2023/11/26 06:56:47;;;;;;;;;;;3.20;1.00;;;;;;5053174;28;19913;-73
2023/11/26 06:59:12;;;;;;;;;;;3.20;1.00;;;;;;5053210;28;19923;-73
2023/11/26 07:01:44;;;;;;;;;;;3.20;1.00;;;;;;5053864;28;19943;-81
2023/11/26 07:04:32;;;;;;;;;;;3.10;1.00;;;;;;5054721;28;19912;-90
2023/11/26 07:10:01;;;;;;;;;;;;;;;;;;5054209;28;19919;-88
2023/11/26 07:15:57;;;;;;;;;;;3.00;1.00;;;;;;5051323;28;19916;-89
2023/11/26 07:21:38;;;;;;;;;;;3.00;1.00;;;;;;5054210;28;19957;-90
2023/11/26 07:24:14;;;;;;;;;;;2.90;1.00;;;;;;5050716;28;19948;-90
2023/11/26 07:29:43;;;;;;;;;;;2.90;1.00;;;;;;5054361;28;19916;-90
2023/11/26 07:32:45;;;;;;;;;;;2.90;1.00;;;;;;5056311;28;19913;-90
2023/11/26 07:35:10;;;;;;;;;;;2.90;1.00;;;;;;5052880;28;20272;-84
2023/11/26 07:40:21;;;;;;;;;;;3.20;1.00;;;;;;5053748;28;20035;-84
2023/11/26 07:52:20;;;;;;;;;;;3.70;1.00;;;;;;5054926;28;20047;-84
2023/11/26 07:57:50;;;;;;;;;;;3.90;1.00;;;;;;5057461;28;19916;-84
2023/11/26 08:00:22;;;;;;;;;;;4.10;1.00;;;;;;5040743;28;20486;-85
2023/11/26 08:05:50;;;;;;;;;;;4.40;1.00;;;;;;5057239;28;19992;-88
2023/11/26 08:08:44;;;;;;;;;;;4.50;1.00;;;;;;5056296;28;19952;-87
2023/11/26 08:11:16;;;;;;;;;;;4.50;1.00;;;;;;5056310;28;19909;-87
2023/11/26 08:13:56;;;;;;;;;;;4.60;1.00;;;;;;5055874;28;20275;-90
2023/11/26 08:16:24;;;;;;;;;;;4.70;1.00;;;;;;5055741;28;19913;-90
2023/11/26 08:18:51;;;;;;;;;;;4.80;1.00;;;;;;5047922;28;19983;-88
2023/11/26 08:24:45;;;;;;;;;;;5.10;1.00;;;;;;5056296;28;19920;-81
2023/11/26 08:27:23;;;;;;;;;;;5.20;1.00;;;;;;5056555;28;19912;-81
2023/11/26 08:32:33;;;;;;;;;;;5.30;1.00;;;;;;5040397;28;19932;-81
2023/11/26 08:41:08;;;;;;;;;;;5.10;1.00;;;;;;5047653;28;19920;-81
2023/11/26 08:47:05;;;;;;;;;;;5.30;1.00;;;;;;5056113;28;19915;-81
2023/11/26 08:49:31;;;;;;;;;;;5.30;1.00;;;;;;5051974;28;20422;-74
2023/11/26 08:52:10;;;;;;;;;;;5.30;1.00;;;;;;5054802;28;20348;-74
2023/11/26 08:54:35;;;;;;;;;;;5.50;1.00;;;;;;5055638;28;19916;-74
2023/11/26 08:57:01;;;;;;;;;;;;;;;;;;5055645;28;19909;-74
2023/11/26 08:59:34;;;;;;;;;;;5.50;1.00;;;;;;5054868;28;20089;-74
2023/11/26 09:02:01;;;;;;;;;;;5.50;1.00;;;;;;5044892;28;20357;-74
2023/11/26 09:04:58;;;;;;;;;;;5.40;1.00;;;;;;5048640;28;19909;-81
2023/11/26 09:07:32;;;;;;;;;;;5.50;1.00;;;;;;5054273;28;19935;-81
2023/11/26 09:16:06;;;;;;;;;;;5.60;1.00;;;;;;5047465;28;19966;-79
2023/11/26 09:18:44;;;;;;;;;;;5.60;1.00;;;;;;5087910;28;19955;-79
2023/11/26 09:24:14;;;;;;;;;;;6.00;1.00;;;;;;5045815;28;20038;-80
2023/11/26 09:29:42;;;;;;;;;;;5.90;1.00;;;;;;5054704;28;20442;-80
2023/11/26 09:32:08;;;;;;;;;;;;;;;;;;5053305;28;20156;-81
2023/11/26 09:34:39;;;;;;;;;;;5.90;1.00;;;;;;5055855;28;19908;-78
2023/11/26 09:40:08;;;;;;;;;;;6.00;1.00;;;;;;5054679;28;20410;-80
2023/11/26 09:43:09;;;;;;;;;;;6.00;1.00;;;;;;5042774;28;19909;-80
2023/11/26 09:45:39;;;;;;;;;;;5.80;1.00;;;;;;5045453;28;19908;-79
2023/11/26 09:48:05;;;;;;;;;;;5.80;1.00;;;;;;5038953;28;19924;-80
2023/11/26 09:50:39;;;;;;;;;;;6.10;1.00;;;;;;5035253;28;19928;-80
2023/11/26 09:59:27;;;;;;;;;;;6.00;1.00;;;;;;5023468;28;20055;-80
2023/11/26 10:04:55;;;;;;;;;;;6.00;1.00;;;;;;5031681;28;19936;-74
2023/11/26 10:07:43;;;;;;;;;;;5.90;1.00;;;;;;5026148;28;19913;-74
2023/11/26 10:10:09;;;;;;;;;;;6.00;1.00;;;;;;5033591;28;20423;-73
2023/11/26 10:12:58;;;;;;;;;;;6.10;1.00;;;;;;5034659;28;19909;-74
2023/11/26 10:15:25;;;;;;;;;;;5.70;1.00;;;;;;5022677;28;20012;-74
2023/11/26 10:18:04;;;;;;;;;;;5.80;1.00;;;;;;5031691;28;19956;-74
2023/11/26 10:20:39;;;;;;;;;;;6.00;1.00;;;;;;5031651;28;20004;-74
2023/11/26 10:23:07;;;;;;;;;;;6.20;1.00;;;;;;5033992;28;20307;-74
2023/11/26 10:25:33;;;;;;;;;;;6.30;1.00;;;;;;5034101;28;19936;-74
2023/11/26 10:28:12;;;;;;;;;;;6.30;1.00;;;;;;5020925;28;20539;-74
2023/11/26 10:30:39;;;;;;;;;;;6.30;1.00;;;;;;5040339;28;20277;-74
2023/11/26 10:33:05;;;;;;;;;;;6.40;1.00;;;;;;5033938;28;19917;-74
2023/11/26 10:35:50;;;;;;;;;;;6.30;1.00;;;;;;5033259;28;19910;-80
2023/11/26 10:38:35;;;;;;;;;;;6.50;1.00;;;;;;5024735;28;19916;-81
2023/11/26 10:41:26;;;;;;;;;;;6.50;1.00;;;;;;5020997;28;19909;-80
2023/11/26 10:46:59;;;;;;;;;;;6.50;1.00;;;;;;5031972;28;20020;-80
2023/11/26 10:49:42;;;;;;;;;;;6.60;1.00;;;;;;5032773;28;19928;-75
2023/11/26 10:52:24;;;;;;;;;;;6.60;1.00;;;;;;5033630;28;20405;-74
2023/11/26 10:55:07;;;;;;;;;;;6.60;1.00;;;;;;5031031;28;19920;-74
2023/11/26 10:57:33;;;;;;;;;;;;;;;;;;5022593;28;19913;-74
2023/11/26 10:59:59;;;;;;;;;;;;;;;;;;5031922;28;19927;-74
2023/11/26 11:02:27;;;;;;;;;;;7.30;1.00;;;;;;5033632;28;19988;-74
2023/11/26 11:04:53;;;;;;;;;;;7.50;1.00;;;;;;5034069;28;19997;-74
2023/11/26 11:07:20;;;;;;;;;;;7.60;1.00;;;;;;5026179;28;19957;-74
2023/11/26 11:10:06;;;;;;;;;;;7.50;1.00;;;;;;5030182;28;19932;-74
2023/11/26 11:13:05;;;;;;;;;;;7.50;1.00;;;;;;5021790;28;19956;-74
2023/11/26 11:15:31;;;;;;;;;;;;;;;;;;4992766;28;20402;-74
2023/11/26 11:18:22;;;;;;;;;;;7.60;1.00;;;;;;4991242;28;19910;-74
2023/11/26 11:20:50;;;;;;;;;;;;;;;;;;5007851;28;19936;-80
2023/11/26 11:26:20;;;;;;;;;;;7.40;1.00;;;;;;5010162;28;20019;-81
2023/11/26 11:35:11;;;;;;;;;;;7.30;1.00;;;;;;4996125;28;19917;-74
2023/11/26 11:37:57;;;;;;;;;;;7.20;1.00;;;;;;4998933;28;19917;-74
2023/11/26 11:40:44;;;;;;;;;;;7.30;1.00;;;;;;4970671;28;20318;-74
2023/11/26 11:43:22;;;;;;;;;;;7.20;1.00;;;;;;4964421;28;19957;-74
2023/11/26 11:46:08;;;;;;;;;;;7.10;1.00;;;;;;4969910;28;20346;-79
2023/11/26 11:51:38;;;;;;;;;;;7.00;1.00;;;;;;4983887;28;19980;-78
2023/11/26 12:00:09;;;;;;;;;;;6.90;1.00;;;;;;4994742;28;19924;-73
2023/11/26 12:02:39;;;;;;;;;;;6.80;1.00;;;;;;4997069;28;19914;-73
2023/11/26 12:05:19;;;;;;;;;;;6.90;1.00;;;;;;4992578;28;19946;-73
2023/11/26 12:07:45;;;;;;;;;;;6.90;1.00;;;;;;4986491;28;19913;-73
2023/11/26 12:10:11;;;;;;;;;;;;;;;;;;4986212;28;19928;-73
2023/11/26 12:12:39;;;;;;;;;;;7.00;1.00;;;;;;4995033;28;19937;-73
2023/11/26 12:15:07;;;;;;;;;;;6.90;1.00;;;;;;4996242;28;19968;-73
2023/11/26 12:17:34;;;;;;;;;;;7.00;1.00;;;;;;5006971;28;19921;-73
2023/11/26 12:20:00;;;;;;;;;;;;;;;;;;5029595;28;19921;-73
2023/11/26 12:22:26;;;;;;;;;;;7.30;1.00;;;;;;5018467;28;19909;-73
2023/11/26 12:25:03;;;;;;;;;;;7.40;1.00;;;;;;5038844;28;20410;-73
2023/11/26 12:27:36;;;;;;;;;;;7.40;1.00;;;;;;5036156;28;19915;-73
2023/11/26 12:30:16;;;;;;;;;;;7.60;1.00;;;;;;5032568;28;19948;-73
2023/11/26 12:32:45;;;;;;;;;;;7.50;1.00;;;;;;5029538;28;19913;-73
2023/11/26 12:35:23;;;;;;;;;;;7.60;1.00;;;;;;5033929;28;20022;-73
2023/11/26 12:37:50;;;;;;;;;;;;;;;;;;5026832;28;19910;-74
2023/11/26 12:40:21;;;;;;;;;;;7.80;1.00;;;;;;5040706;28;19927;-73
2023/11/26 12:42:48;;;;;;;;;;;7.90;1.00;;;;;;5035112;28;19913;-74
2023/11/26 12:45:14;;;;;;;;;;;;;;;;;;5033195;28;19909;-74
2023/11/26 12:47:56;;;;;;;;;;;7.80;1.00;;;;;;5032211;28;20327;-74
2023/11/26 12:50:22;;;;;;;;;;;7.60;1.00;;;;;;5020448;28;20341;-78
2023/11/26 12:52:51;;;;;;;;;;;7.60;1.00;;;;;;5024467;28;20419;-79
2023/11/26 12:58:20;;;;;;;;;;;;;;;;;;5023578;28;20375;-79
2023/11/26 13:03:49;;;;;;;;;;;7.50;1.00;;;;;;5038927;28;19920;-79
2023/11/26 13:15:45;;;;;;;;;;;7.60;1.00;;;;;;5021905;28;19920;-79
2023/11/26 13:21:13;;;;;;;;;;;7.50;1.00;;;;;;5048738;28;19919;-72
2023/11/26 13:23:45;;;;;;;;;;;7.40;1.00;;;;;;5024410;28;19913;-73
2023/11/26 13:26:10;;;;;;;;;;;7.50;1.00;;;;;;5033267;28;19913;-73
2023/11/26 13:28:38;;;;;;;;;;;7.60;1.00;;;;;;5036217;28;19963;-73
2023/11/26 13:31:04;;;;;;;;;;;7.60;1.00;;;;;;5031506;28;19956;-73
2023/11/26 13:33:30;;;;;;;;;;;7.60;1.00;;;;;;5017316;28;19910;-73
2023/11/26 13:36:32;;;;;;;;;;;7.50;1.00;;;;;;5024001;28;19983;-79
2023/11/26 13:38:58;;;;;;;;;;;7.60;1.00;;;;;;5034962;28;19917;-79
2023/11/26 13:44:34;;;;;;;;;;;7.70;1.00;;;;;;5015566;28;19921;-80
2023/11/26 13:47:05;;;;;;;;;;;7.80;1.00;;;;;;5019148;28;19909;-80
2023/11/26 13:49:30;;;;;;;;;;;7.80;1.00;;;;;;5044209;28;19978;-80
2023/11/26 13:51:59;;;;;;;;;;;8.00;1.00;;;;;;5054547;28;19920;-73
2023/11/26 13:54:39;;;;;;;;;;;8.10;1.00;;;;;;5049748;28;20410;-73
2023/11/26 13:57:05;;;;;;;;;;;8.00;1.00;;;;;;5049718;28;20368;-73
2023/11/26 13:59:31;;;;;;;;;;;8.10;1.00;;;;;;5053826;28;19958;-73
2023/11/26 14:01:57;;;;;;;;;;;8.10;1.00;;;;;;5050501;28;19978;-73
2023/11/26 14:04:23;;;;;;;;;;;8.30;1.00;;;;;;5051565;28;20363;-73
2023/11/26 14:13:17;;;;;;;;;;;7.80;1.00;;;;;;5053125;28;19919;-79
2023/11/26 14:15:51;;;;;;;;;;;7.80;1.00;;;;;;5045589;28;19917;-80
2023/11/26 14:27:25;;;;;;;;;;;7.80;1.00;;;;;;5034042;28;19916;-79
2023/11/26 14:33:26;;;;;;;;;;;7.90;1.00;;;;;;5057945;28;19960;-85
2023/11/26 14:35:57;;;;;;;;;;;7.90;1.00;;;;;;5055762;28;19909;-80
2023/11/26 14:38:22;;;;;;;;;;;7.70;1.00;;;;;;5053690;28;19920;-73
2023/11/26 14:40:48;;;;;;;;;;;7.60;1.00;;;;;;5053675;28;19913;-72
2023/11/26 14:43:14;;;;;;;;;;;7.70;1.00;;;;;;5045524;28;19913;-73
2023/11/26 14:45:41;;;;;;;;;;;7.50;1.00;;;;;;5078731;28;19963;-73
2023/11/26 14:48:07;;;;;;;;;;;;;;;;;;5047320;28;19917;-73
2023/11/26 14:50:32;;;;;;;;;;;7.50;1.00;;;;;;5047077;28;19952;-73
2023/11/26 14:52:58;;;;;;;;;;;7.40;1.00;;;;;;5053615;28;19944;-73
2023/11/26 14:55:24;;;;;;;;;;;7.50;1.00;;;;;;5038863;28;19955;-72
2023/11/26 14:57:49;;;;;;;;;;;7.40;1.00;;;;;;5052126;28;19956;-73
2023/11/26 15:00:15;;;;;;;;;;;7.30;1.00;;;;;;5055430;28;20423;-72
2023/11/26 15:02:41;;;;;;;;;;;7.10;1.00;;;;;;5052398;28;19912;-72
2023/11/26 15:05:06;;;;;;;;;;;7.30;1.00;;;;;;5050568;28;19959;-72
2023/11/26 15:07:32;;;;;;;;;;;7.30;1.00;;;;;;5053388;28;19919;-72
2023/11/26 15:10:04;;;;;;;;;;;7.30;1.00;;;;;;5057218;28;20600;-72
2023/11/26 15:12:29;;;;;;;;;;;7.40;1.00;;;;;;5056111;28;19917;-73
2023/11/26 15:14:55;;;;;;;;;;;7.40;1.00;;;;;;5051735;28;20254;-72
2023/11/26 15:17:20;;;;;;;;;;;7.40;1.00;;;;;;5052474;28;20000;-72
2023/11/26 15:19:46;;;;;;;;;;;7.40;1.00;;;;;;5050459;28;19917;-72
2023/11/26 15:22:13;;;;;;;;;;;7.30;1.00;;;;;;5055075;28;19917;-73
2023/11/26 15:24:41;;;;;;;;;;;7.30;1.00;;;;;;5052711;28;19916;-73
2023/11/26 15:27:07;;;;;;;;;;;7.30;1.00;;;;;;5060099;28;19978;-72
2023/11/26 15:29:35;;;;;;;;;;;7.20;1.00;;;;;;5046556;28;19967;-72
2023/11/26 15:32:04;;;;;;;;;;;7.20;1.00;;;;;;5080941;28;19913;-72
2023/11/26 15:34:32;;;;;;;;;;;7.20;1.00;;;;;;5035842;28;20372;-72
2023/11/26 15:36:58;;;;;;;;;;;7.10;1.00;;;;;;5050163;28;20003;-75
2023/11/26 15:45:33;;;;;;;;;;;6.90;1.00;;;;;;5056958;28;19958;-78
2023/11/26 15:47:58;;;;;;;;;;;6.80;1.00;;;;;;5051455;28;19992;-77
2023/11/26 15:53:08;;;;;;;;;;;6.70;1.00;;;;;;5061036;28;19950;-79
2023/11/26 15:55:34;;;;;;;;;;;;;;;;;;5041396;28;19921;-80
2023/11/26 16:01:04;;;;;;;;;;;6.70;1.00;;;;;;5061770;28;19970;-79
2023/11/26 16:09:39;;;;;;;;;;;6.50;1.00;;;;;;5051195;28;19958;-74
2023/11/26 16:12:08;;;;;;;;;;;6.50;1.00;;;;;;5052762;28;19998;-74
2023/11/26 16:14:38;;;;;;;;;;;6.50;1.00;;;;;;5056076;28;20378;-75
2023/11/26 16:17:05;;;;;;;;;;;6.60;1.00;;;;;;5048654;28;19912;-71
2023/11/26 16:19:33;;;;;;;;;;;6.60;1.00;;;;;;5047598;28;19913;-72
2023/11/26 16:21:59;;;;;;;;;;;6.60;1.00;;;;;;5055624;28;20315;-72
2023/11/26 16:24:24;;;;;;;;;;;6.60;1.00;;;;;;5052296;28;19913;-70
2023/11/26 16:26:52;;;;;;;;;;;6.60;1.00;;;;;;5055445;28;20003;-70
2023/11/26 16:29:18;;;;;;;;;;;6.50;1.00;;;;;;5055452;28;19904;-71
2023/11/26 16:31:43;;;;;;;;;;;6.50;1.00;;;;;;5055584;28;20318;-71
2023/11/26 16:34:12;;;;;;;;;;;6.60;1.00;;;;;;5053237;28;19920;-72
2023/11/26 16:36:38;;;;;;;;;;;6.50;1.00;;;;;;5053748;28;19972;-72
2023/11/26 16:39:08;;;;;;;;;;;6.60;1.00;;;;;;5055734;28;19947;-72
2023/11/26 16:41:40;;;;;;;;;;;6.60;1.00;;;;;;5047624;28;19909;-73
2023/11/26 16:44:06;;;;;;;;;;;6.60;1.00;;;;;;5049191;28;19913;-72
2023/11/26 16:46:31;;;;;;;;;;;6.50;1.00;;;;;;5045269;28;20075;-72
2023/11/26 16:48:57;;;;;;;;;;;6.50;1.00;;;;;;5047242;28;19912;-72
2023/11/26 16:51:23;;;;;;;;;;;6.50;1.00;;;;;;5047248;28;19915;-72
2023/11/26 16:53:48;;;;;;;;;;;6.50;1.00;;;;;;5055230;28;20260;-72
2023/11/26 16:56:17;;;;;;;;;;;6.50;1.00;;;;;;5055238;28;20034;-72
2023/11/26 16:58:42;;;;;;;;;;;6.40;1.00;;;;;;5050065;28;19915;-73
2023/11/26 17:01:10;;;;;;;;;;;6.40;1.00;;;;;;5058566;28;19909;-73
2023/11/26 17:03:36;;;;;;;;;;;6.50;1.00;;;;;;5048537;28;19912;-73
2023/11/26 17:06:02;;;;;;;;;;;6.40;1.00;;;;;;5054288;28;19908;-72
2023/11/26 17:08:28;;;;;;;;;;;6.40;1.00;;;;;;5051777;28;19913;-73
2023/11/26 17:10:57;;;;;;;;;;;6.40;1.00;;;;;;5053831;28;19905;-73
2023/11/26 17:13:27;;;;;;;;;;;;;;;;;;5055398;28;19977;-73
2023/11/26 17:15:53;;;;;;;;;;;6.40;1.00;;;;;;5052780;28;19999;-74
2023/11/26 17:18:19;;;;;;;;;;;6.30;1.00;;;;;;5060097;28;19943;-73
2023/11/26 17:20:46;;;;;;;;;;;6.30;1.00;;;;;;5055403;28;19912;-74
2023/11/26 17:32:20;;;;;;;;;;;6.40;1.00;;;;;;5055042;28;19927;-77
2023/11/26 17:37:49;;;;;;;;;;;6.50;1.00;;;;;;5058342;28;19915;-78
2023/11/26 17:40:15;;;;;;;;;;;6.40;1.00;;;;;;5066731;28;20280;-72
2023/11/26 17:42:41;;;;;;;;;;;;;;;;;;5054669;28;19916;-72
2023/11/26 17:45:07;;;;;;;;;;;6.40;1.00;;;;;;5066229;28;19905;-73
2023/11/26 17:47:33;;;;;;;;;;;6.30;1.00;;;;;;5051312;28;19909;-73
2023/11/26 17:50:00;;;;;;;;;;;6.30;1.00;;;;;;5053142;28;20030;-73
2023/11/26 17:52:26;;;;;;;;;;;6.40;1.00;;;;;;5051661;28;19936;-73
2023/11/26 17:54:57;;;;;;;;;;;6.30;1.00;;;;;;5054615;28;19908;-73
2023/11/26 17:57:23;;;;;;;;;;;6.40;1.00;;;;;;5057755;28;19905;-72
2023/11/26 17:59:48;;;;;;;;;;;6.30;1.00;;;;;;5053974;28;19966;-73
2023/11/26 18:02:14;;;;;;;;;;;6.30;1.00;;;;;;5061680;28;19976;-74
2023/11/26 18:07:42;;;;;;;;;;;6.30;1.00;;;;;;5053669;28;19927;-79
2023/11/26 18:16:15;;;;;;;;;;;6.40;1.00;;;;;;5047594;28;19915;-78
2023/11/26 18:18:51;;;;;;;;;;;6.30;1.00;;;;;;5054203;28;19912;-77
2023/11/26 18:21:27;;;;;;;;;;;;;;;;;;5057027;28;19904;-76
2023/11/26 18:36:05;;;;;;;;;;;6.30;1.00;;;;;;5053740;28;19940;-80
2023/11/26 18:38:46;;;;;;;;;;;6.30;1.00;;;;;;5040756;28;19904;-80
2023/11/26 18:41:21;;;;;;;;;;;6.30;1.00;;;;;;5053738;28;19919;-73
2023/11/26 18:43:47;;;;;;;;;;;6.30;1.00;;;;;;5038816;28;20067;-73
2023/11/26 18:46:13;;;;;;;;;;;6.30;1.00;;;;;;5047154;28;19905;-73
2023/11/26 18:48:39;;;;;;;;;;;6.30;1.00;;;;;;5041087;28;19919;-73
2023/11/26 18:51:09;;;;;;;;;;;6.30;1.00;;;;;;5040141;28;19908;-74
2023/11/26 18:53:35;;;;;;;;;;;6.20;1.00;;;;;;5052957;28;20011;-73
2023/11/26 18:56:02;;;;;;;;;;;6.20;1.00;;;;;;5053854;28;19911;-74
2023/11/26 18:58:33;;;;;;;;;;;6.10;1.00;;;;;;5053588;28;19908;-73
2023/11/26 19:00:58;;;;;;;;;;;6.00;1.00;;;;;;5053300;28;20439;-72
2023/11/26 19:03:27;;;;;;;;;;;6.00;1.00;;;;;;5053519;28;19988;-73
2023/11/26 19:05:53;;;;;;;;;;;5.90;1.00;;;;;;5053567;28;19908;-73
2023/11/26 19:08:19;;;;;;;;;;;;;;;;;;5053402;28;19912;-73
2023/11/26 19:16:50;;;;;;;;;;;6.00;1.00;;;;;;5053649;28;19959;-80
2023/11/26 19:19:16;;;;;;;;;;;6.00;1.00;;;;;;5053504;28;19913;-80
2023/11/26 19:21:45;;;;;;;;;;;5.80;1.00;;;;;;5035680;28;19905;-80
2023/11/26 19:24:15;;;;;;;;;;;5.80;1.00;;;;;;5053480;28;19908;-75
2023/11/26 19:32:53;;;;;;;;;;;5.70;1.00;;;;;;5053540;28;19911;-81
2023/11/26 19:41:26;;;;;;;;;;;5.70;1.00;;;;;;5052037;28;20337;-73
2023/11/26 19:43:51;;;;;;;;;;;5.70;1.00;;;;;;5071667;28;19909;-73
2023/11/26 19:46:18;;;;;;;;;;;5.80;1.00;;;;;;5055299;28;19927;-73
2023/11/26 19:48:47;;;;;;;;;;;5.70;1.00;;;;;;5044953;28;19913;-73
2023/11/26 19:51:17;;;;;;;;;;;5.70;1.00;;;;;;5055063;28;20413;-73
2023/11/26 19:53:45;;;;;;;;;;;5.70;1.00;;;;;;5044753;28;19916;-73
2023/11/26 19:56:11;;;;;;;;;;;5.70;1.00;;;;;;5056269;28;20055;-74
2023/11/26 19:58:38;;;;;;;;;;;5.70;1.00;;;;;;5069487;28;19958;-73
2023/11/26 20:01:09;;;;;;;;;;;5.70;1.00;;;;;;5057709;28;19908;-73
2023/11/26 20:03:35;;;;;;;;;;;5.80;1.00;;;;;;5056722;28;20437;-74
2023/11/26 20:06:11;;;;;;;;;;;5.70;1.00;;;;;;5056658;28;19943;-73
2023/11/26 20:08:39;;;;;;;;;;;;;;;;;;5047096;28;19909;-73
2023/11/26 20:14:07;;;;;;;;;;;5.80;1.00;;;;;;5069706;28;19915;-80
2023/11/26 20:16:45;;;;;;;;;;;5.80;1.00;;;;;;5056370;28;20280;-80
2023/11/26 20:22:14;;;;;;;;;;;5.90;1.00;;;;;;5051425;28;19951;-80
2023/11/26 20:24:51;;;;;;;;;;;5.90;1.00;;;;;;5047992;28;19913;-80
2023/11/26 20:27:21;;;;;;;;;;;5.90;1.00;;;;;;5055960;28;19954;-72
2023/11/26 20:29:47;;;;;;;;;;;5.90;1.00;;;;;;5055489;28;19904;-72
2023/11/26 20:32:15;;;;;;;;;;;5.90;1.00;;;;;;5066999;28;19958;-72
2023/11/26 20:34:40;;;;;;;;;;;5.90;1.00;;;;;;5043402;28;19948;-72
2023/11/26 20:37:06;;;;;;;;;;;5.80;1.00;;;;;;5043392;28;20312;-73
2023/11/26 20:39:32;;;;;;;;;;;5.70;1.00;;;;;;5055698;28;19940;-73
2023/11/26 20:42:15;;;;;;;;;;;5.70;1.00;;;;;;5036690;28;20264;-80
2023/11/26 20:44:43;;;;;;;;;;;5.90;1.00;;;;;;5058167;28;19904;-80
2023/11/26 20:47:09;;;;;;;;;;;5.90;1.00;;;;;;5056257;28;19904;-80
2023/11/26 20:55:40;;;;;;;;;;;5.90;1.00;;;;;;5056075;28;20015;-73